Airfield :
LOGIN :

Register | Disclaimer

   EN    FR    IT 

 










Legend :    VFR   Marginal VFR   IFR   Intensive IFR   Very Intensive IFR
Visi :
Ceiling :
>= 8 km
>= 3000ft
5 to 8 km
1000 to 3000 ft
1500m to 5 km
500 to 1000 ft
800 to 1500m
200 to 500 ft
< 800m
< 200 ft
Symbols :   Thunderstorms  Fog  Heavy snow  Heavy precipitations  Wind > 20 kt
SIGMETs :     Misc.  Thunderstorms  Icing  Turbulence  Mountain Waves  Volcanic Ashes






- Airport Elevation : 120 ft
- IATA code : MME


EGNV - Durham Tees valley

CURRENT METAR :
  • 100920Z 18023KT 9000 VCSH FEW020 BKN035 05/03 Q1004

EXPIRED METARs :
  • 100850Z 19017KT 9000 VCSH FEW025 SCT038 04/03 Q1005
  • 100820Z 18015KT 9999 VCSH FEW020 SCT035 04/03 Q1007
  • 100750Z 17016KT 9000 -RA FEW020 SCT045 03/02 Q1007
  • 100720Z 18019KT 9999 -RA FEW018 SCT045 03/02 Q1008
  • 100650Z 18012KT 9999 -RA FEW016 SCT021 03/01 Q1009

TAF TAF EGNV
Valid from the 10 at 09:00 until the 10 at 18:00 UTC


100806Z 1009/1018 17015G25KT 9999 FEW035
BECMG 1009/1011 18023G35KT
PROB40
TEMPO 1009/1015 8000 -RA
TEMPO 1010/1015 20030G45KT
ATIS : +44 9012 018 111



MET'MAP, your aeronautical weather chart ! - Copyright ORBIFLY December 2007 - Disclaimer

ORBIFLY MET'MAP TEAM :

Programming & Development : Alexandra Zaïnal
Concept & original design : Baudouin d'Aumeries
Assistance for programming : Marc-Olivier Méhu
Technical & hardware support : Manuel Goepfert

Contact : metmap@orbifly.com




SOURCES & CREDITS :

   NOAA